createdAt,value
2018-05-12T00:02:28.941Z,29.08
2018-05-12T00:05:02.639Z,28.30
2018-05-12T00:07:37.179Z,29.02
2018-05-12T00:10:10.852Z,30.33
2018-05-12T00:12:44.617Z,30.37
2018-05-12T00:15:18.198Z,30.52
2018-05-12T00:17:52.037Z,30.17
2018-05-12T00:20:26.617Z,29.98
2018-05-12T00:23:00.884Z,31.80
2018-05-12T00:25:34.708Z,29.48
2018-05-12T00:28:09.074Z,30.98
2018-05-12T00:30:42.713Z,28.60
2018-05-12T00:33:17.312Z,30.00
2018-05-12T00:35:51.044Z,29.37
2018-05-12T00:38:25.624Z,29.98
2018-05-12T00:40:59.361Z,29.02
2018-05-12T00:43:33.133Z,29.55
2018-05-12T00:46:07.558Z,29.37
2018-05-12T00:48:42.093Z,28.55
2018-05-12T00:51:16.054Z,29.42
2018-05-12T00:53:49.845Z,30.35
2018-05-12T00:56:24.462Z,30.35
2018-05-12T00:58:59.033Z,29.10
2018-05-12T01:01:32.721Z,27.95
2018-05-12T01:04:06.353Z,28.80
2018-05-12T01:06:40.093Z,28.60
2018-05-12T01:09:14.654Z,29.10
2018-05-12T01:11:48.437Z,29.65
2018-05-12T01:14:22.316Z,30.48
2018-05-12T01:16:56.034Z,28.85
2018-05-12T01:19:30.525Z,30.37
2018-05-12T01:22:04.366Z,30.08
2018-05-12T01:24:38.068Z,30.02
2018-05-12T01:27:11.737Z,28.58
2018-05-12T01:29:45.574Z,29.75
2018-05-12T01:32:19.307Z,28.77
2018-05-12T01:34:53.127Z,29.50
2018-05-12T01:37:26.792Z,30.17
2018-05-12T01:40:01.165Z,29.20
2018-05-12T01:42:35.729Z,31.25
2018-05-12T01:45:09.434Z,30.48
2018-05-12T01:47:43.037Z,31.15
2018-05-12T01:50:16.816Z,31.40
2018-05-12T01:52:50.516Z,32.33
2018-05-12T01:55:25.186Z,32.95
2018-05-12T01:57:59.660Z,30.95
2018-05-12T02:00:33.300Z,31.15
2018-05-12T02:03:07.125Z,32.67
2018-05-12T02:05:40.856Z,31.33
2018-05-12T02:08:14.580Z,30.95
2018-05-12T02:10:48.255Z,34.53
2018-05-12T02:13:22.177Z,33.47
2018-05-12T02:15:55.935Z,35.25
2018-05-12T02:18:29.724Z,35.00
2018-05-12T02:21:03.540Z,34.35
2018-05-12T02:23:38.172Z,31.75
2018-05-12T02:26:12.050Z,33.75
2018-05-12T02:28:45.743Z,33.67
2018-05-12T02:31:19.316Z,32.72
2018-05-12T02:33:53.111Z,33.15
2018-05-12T02:36:26.893Z,34.78
2018-05-12T02:39:00.494Z,33.58
2018-05-12T02:41:34.061Z,34.72
2018-05-12T02:44:08.618Z,34.58
2018-05-12T02:46:42.457Z,34.55
2018-05-12T02:49:16.108Z,35.60
2018-05-12T02:51:49.682Z,33.08
2018-05-12T02:54:25.946Z,35.40
2018-05-12T02:56:59.689Z,34.03
2018-05-12T02:59:34.464Z,33.85
2018-05-12T03:02:08.070Z,35.25
2018-05-12T03:04:42.634Z,41.70
2018-05-12T03:07:16.488Z,33.30
2018-05-12T03:09:51.081Z,33.75
2018-05-12T03:12:24.889Z,34.80
2018-05-12T03:14:58.680Z,33.80
2018-05-12T03:17:32.489Z,33.70
2018-05-12T03:20:06.308Z,33.38
2018-05-12T03:22:40.118Z,33.63
2018-05-12T03:25:13.918Z,37.65
2018-05-12T03:27:48.497Z,35.88
2018-05-12T03:30:22.269Z,36.97
2018-05-12T03:32:55.985Z,36.75
2018-05-12T03:35:29.840Z,36.22
2018-05-12T03:38:03.663Z,33.95
2018-05-12T03:40:38.082Z,37.90
2018-05-12T03:43:12.465Z,34.90
2018-05-12T03:45:46.076Z,35.72
2018-05-12T03:48:19.802Z,36.72
2018-05-12T03:50:53.649Z,37.00
2018-05-12T03:53:28.300Z,35.40
2018-05-12T03:56:02.036Z,36.38
2018-05-12T03:58:36.525Z,35.22
2018-05-12T04:01:10.316Z,37.25
2018-05-12T04:03:44.893Z,37.25
2018-05-12T04:06:30.525Z,36.58
2018-05-12T04:09:17.072Z,36.83
2018-05-12T04:12:02.693Z,37.70
2018-05-12T04:14:36.539Z,41.63
2018-05-12T04:17:11.045Z,38.72
2018-05-12T04:19:45.617Z,36.05
2018-05-12T04:22:19.331Z,36.70
2018-05-12T04:24:53.168Z,37.08
2018-05-12T04:27:26.844Z,34.92
2018-05-12T04:30:00.428Z,35.38
2018-05-12T04:32:34.924Z,35.35
2018-05-12T04:35:08.651Z,35.50
2018-05-12T04:37:42.499Z,36.60
2018-05-12T04:40:16.321Z,34.60
2018-05-12T04:42:50.897Z,35.10
2018-05-12T04:45:24.683Z,37.05
2018-05-12T04:47:58.450Z,36.35
2018-05-12T04:50:32.242Z,35.15
2018-05-12T04:53:06.839Z,35.45
2018-05-12T04:55:40.549Z,37.58
2018-05-12T04:58:14.340Z,36.33
2018-05-12T05:00:48.121Z,37.45
2018-05-12T05:03:22.671Z,36.80
2018-05-12T05:05:57.217Z,36.58
2018-05-12T05:08:31.785Z,37.90
2018-05-12T05:11:05.520Z,36.90
2018-05-12T05:13:39.342Z,37.00
2018-05-12T05:16:13.008Z,37.05
2018-05-12T05:18:47.468Z,36.28
2018-05-12T05:21:21.159Z,35.85
2018-05-12T05:23:54.863Z,36.40
2018-05-12T05:26:29.493Z,34.60
2018-05-12T05:29:03.261Z,38.58
2018-05-12T05:31:37.853Z,36.40
2018-05-12T05:34:11.608Z,38.53
2018-05-12T05:36:45.431Z,37.70
2018-05-12T05:39:19.931Z,37.65
2018-05-12T05:41:53.524Z,37.88
2018-05-12T05:44:27.251Z,38.13
2018-05-12T05:47:01.069Z,36.50
2018-05-12T05:49:34.892Z,35.42
2018-05-12T05:52:08.680Z,34.03
2018-05-12T05:54:42.794Z,32.53
2018-05-12T05:57:16.695Z,32.55
2018-05-12T05:59:50.380Z,31.02
2018-05-12T06:02:24.125Z,34.08
2018-05-12T06:04:58.627Z,32.50
2018-05-12T06:07:33.075Z,31.35
2018-05-12T06:10:06.700Z,31.33
2018-05-12T06:12:41.276Z,31.30
2018-05-12T06:15:15.821Z,32.30
2018-05-12T06:17:50.363Z,32.00
2018-05-12T06:20:24.133Z,33.63
2018-05-12T06:22:57.920Z,33.05
2018-05-12T06:25:31.964Z,30.73
2018-05-12T06:28:06.081Z,32.75
2018-05-12T06:30:39.775Z,33.05
2018-05-12T06:33:13.595Z,31.95
2018-05-12T06:35:48.169Z,31.58
2018-05-12T06:38:21.879Z,31.80
2018-05-12T06:40:55.636Z,33.40
2018-05-12T06:43:29.465Z,31.85
2018-05-12T06:46:04.015Z,32.92
2018-05-12T06:48:37.899Z,32.95
2018-05-12T06:51:11.653Z,32.83
2018-05-12T06:53:45.509Z,31.60
2018-05-12T06:56:19.229Z,32.13
2018-05-12T06:58:53.021Z,32.65
2018-05-12T07:01:26.994Z,32.03
2018-05-12T07:04:00.620Z,31.17
2018-05-12T07:06:35.207Z,30.80
2018-05-12T07:09:09.616Z,31.20
2018-05-12T07:11:43.311Z,30.60
2018-05-12T07:14:17.182Z,31.42
2018-05-12T07:16:50.927Z,30.75
2018-05-12T07:19:25.332Z,30.45
2018-05-12T07:21:58.964Z,31.50
2018-05-12T07:24:32.748Z,30.00
2018-05-12T07:27:07.399Z,28.50
2018-05-12T07:29:42.044Z,29.70
2018-05-12T07:32:15.804Z,28.23
2018-05-12T07:34:49.585Z,29.90
2018-05-12T07:37:23.441Z,29.58
2018-05-12T07:39:57.160Z,28.35
2018-05-12T07:42:31.090Z,30.50
2018-05-12T07:45:05.056Z,32.47
2018-05-12T07:47:38.764Z,30.70
2018-05-12T07:50:12.592Z,31.37
2018-05-12T07:52:46.192Z,30.45
2018-05-12T07:55:19.994Z,32.05
2018-05-12T07:57:53.728Z,32.70
2018-05-12T08:00:27.436Z,32.22
2018-05-12T08:03:01.181Z,31.27
2018-05-12T08:05:34.948Z,31.50
2018-05-12T08:08:08.680Z,28.45
2018-05-12T08:10:42.356Z,30.58
2018-05-12T08:13:16.921Z,32.08
2018-05-12T08:15:50.774Z,32.28
2018-05-12T08:18:25.328Z,30.85
2018-05-12T08:20:59.154Z,33.40
2018-05-12T08:23:32.872Z,31.90
2018-05-12T08:26:06.601Z,26.83
2018-05-12T08:28:40.345Z,29.37
2018-05-12T08:31:14.190Z,27.90
2018-05-12T08:33:47.745Z,26.17
2018-05-12T08:36:22.329Z,27.60
2018-05-12T08:38:56.108Z,25.47
2018-05-12T08:41:30.605Z,26.60
2018-05-12T08:44:04.264Z,26.73
2018-05-12T08:46:38.736Z,27.10
2018-05-12T08:49:12.377Z,26.10
2018-05-12T08:51:46.111Z,24.87
2018-05-12T08:54:19.903Z,23.40
2018-05-12T08:56:53.752Z,23.20
2018-05-12T08:59:27.560Z,20.83
2018-05-12T09:02:01.444Z,22.90
2018-05-12T09:04:35.202Z,21.73
2018-05-12T09:07:09.828Z,22.13
2018-05-12T09:09:43.678Z,23.90
2018-05-12T09:12:17.388Z,25.57
2018-05-12T09:14:51.193Z,22.40
2018-05-12T09:17:25.032Z,22.10
2018-05-12T09:19:58.760Z,22.30
2018-05-12T09:22:32.630Z,19.70
2018-05-12T09:25:06.277Z,19.30
2018-05-12T09:27:40.021Z,22.00
2018-05-12T09:30:13.775Z,20.07
2018-05-12T09:32:47.534Z,19.30
2018-05-12T09:35:22.083Z,20.17
2018-05-12T09:37:56.726Z,19.80
2018-05-12T09:40:30.481Z,19.87
2018-05-12T09:43:04.192Z,21.00
2018-05-12T09:45:37.955Z,24.10
2018-05-12T09:48:11.561Z,23.03
2018-05-12T09:50:46.021Z,22.20
2018-05-12T09:53:20.368Z,22.77
2018-05-12T09:55:54.219Z,25.40
2018-05-12T09:58:28.781Z,22.90
2018-05-12T10:01:02.473Z,22.20
2018-05-12T10:03:36.282Z,23.63
2018-05-12T10:06:10.834Z,22.63
2018-05-12T10:08:45.381Z,21.30
2018-05-12T10:11:19.174Z,22.80
2018-05-12T10:13:52.940Z,23.07
2018-05-12T10:16:26.585Z,18.30
2018-05-12T10:19:00.479Z,16.43
2018-05-12T10:21:34.342Z,16.63
2018-05-12T10:24:08.189Z,16.17
2018-05-12T10:26:41.946Z,18.00
2018-05-12T10:29:15.706Z,10.20
2018-05-12T10:31:55.950Z,9.77
2018-05-12T10:34:29.681Z,9.97
2018-05-12T10:37:03.638Z,11.17
2018-05-12T10:39:37.394Z,10.57
2018-05-12T10:42:12.021Z,9.40
2018-05-12T10:44:46.618Z,8.73
2018-05-12T10:47:20.371Z,7.53
2018-05-12T10:49:54.160Z,8.63
2018-05-12T10:52:27.909Z,7.90
2018-05-12T10:55:02.359Z,6.90
2018-05-12T10:57:36.260Z,7.93
2018-05-12T11:00:10.094Z,7.50
2018-05-12T11:02:44.724Z,7.47
2018-05-12T11:05:18.436Z,6.13
2018-05-12T11:07:52.257Z,7.40
2018-05-12T11:10:26.582Z,6.07
2018-05-12T11:13:01.116Z,6.63
2018-05-12T11:15:34.959Z,6.07
2018-05-12T11:18:08.712Z,6.40
2018-05-12T11:20:43.211Z,7.03
2018-05-12T11:23:16.876Z,7.37
2018-05-12T11:25:50.599Z,8.60
2018-05-12T11:28:24.270Z,8.53
2018-05-12T11:30:58.018Z,6.60
2018-05-12T11:33:32.507Z,6.20
2018-05-12T11:36:07.061Z,6.73
2018-05-12T11:38:40.698Z,6.30
2018-05-12T11:41:14.401Z,7.17
2018-05-12T11:43:48.000Z,6.10
2018-05-12T11:46:21.813Z,14.23
2018-05-12T11:48:55.605Z,7.07
2018-05-12T11:51:29.548Z,7.10
2018-05-12T11:54:03.967Z,6.43
2018-05-12T11:56:37.514Z,6.90
2018-05-12T11:59:11.382Z,7.80
2018-05-12T12:01:45.905Z,6.83
2018-05-12T12:04:20.475Z,5.90
2018-05-12T12:06:54.951Z,6.63
2018-05-12T12:09:28.560Z,6.27
2018-05-12T12:12:02.378Z,6.20
2018-05-12T12:14:36.126Z,6.60
2018-05-12T12:17:09.905Z,6.40
2018-05-12T12:19:44.304Z,5.23
2018-05-12T12:22:18.166Z,6.20
2018-05-12T12:24:53.469Z,7.60
2018-05-12T12:27:28.097Z,7.43
2018-05-12T12:30:01.914Z,6.30
2018-05-12T12:32:35.728Z,6.47
2018-05-12T12:35:09.466Z,5.70
2018-05-12T12:37:43.271Z,6.57
2018-05-12T12:40:16.988Z,6.57
2018-05-12T12:42:50.609Z,6.10
2018-05-12T12:45:24.393Z,7.00
2018-05-12T12:47:58.261Z,5.50
2018-05-12T12:50:31.977Z,5.40
2018-05-12T12:53:05.781Z,5.60
2018-05-12T12:55:39.688Z,5.20
2018-05-12T12:58:13.404Z,5.80
2018-05-12T13:00:47.788Z,6.20
2018-05-12T13:03:21.537Z,5.80
2018-05-12T13:05:55.412Z,5.57
2018-05-12T13:08:29.056Z,6.70
2018-05-12T13:11:02.696Z,6.00
2018-05-12T13:13:36.449Z,5.80
2018-05-12T13:16:10.251Z,5.90
2018-05-12T13:18:44.014Z,5.70
2018-05-12T13:21:17.841Z,6.53
2018-05-12T13:23:51.684Z,6.37
2018-05-12T13:26:25.410Z,4.93
2018-05-12T13:28:59.179Z,5.40
2018-05-12T13:31:33.840Z,5.10
2018-05-12T13:34:07.447Z,5.00
2018-05-12T13:36:41.283Z,6.80
2018-05-12T13:39:15.436Z,5.90
2018-05-12T13:41:49.819Z,5.67
2018-05-12T13:44:23.569Z,6.10
2018-05-12T13:46:57.325Z,5.80
2018-05-12T13:49:31.196Z,5.53
2018-05-12T13:52:04.956Z,5.63
2018-05-12T13:54:38.676Z,6.50
2018-05-12T13:57:12.461Z,5.63
2018-05-12T13:59:46.252Z,5.73
2018-05-12T14:02:20.780Z,5.43
2018-05-12T14:04:54.542Z,5.27
2018-05-12T14:07:28.390Z,7.70
2018-05-12T14:10:02.925Z,5.37
2018-05-12T14:12:37.506Z,4.80
2018-05-12T14:15:11.207Z,5.23
2018-05-12T14:17:44.950Z,5.17
2018-05-12T14:20:18.826Z,5.20
2018-05-12T14:22:52.504Z,5.00
2018-05-12T14:25:27.179Z,5.27
2018-05-12T14:28:00.941Z,5.03
2018-05-12T14:30:35.500Z,4.93
2018-05-12T14:33:09.266Z,4.80
2018-05-12T14:35:43.850Z,4.67
2018-05-12T14:38:17.662Z,5.77
2018-05-12T14:40:51.520Z,5.10
2018-05-12T14:43:26.088Z,4.57
2018-05-12T14:45:59.872Z,5.30
2018-05-12T14:48:34.508Z,5.17
2018-05-12T14:51:08.301Z,5.10
2018-05-12T14:53:42.874Z,4.57
2018-05-12T14:56:16.625Z,4.80
2018-05-12T14:58:50.397Z,10.20
2018-05-12T15:01:24.195Z,6.47
2018-05-12T15:03:57.909Z,4.80
2018-05-12T15:06:31.752Z,5.43
2018-05-12T15:09:05.625Z,5.90
2018-05-12T15:11:39.462Z,5.60
2018-05-12T15:14:13.289Z,5.27
2018-05-12T15:16:47.073Z,6.40
2018-05-12T15:19:20.869Z,5.20
2018-05-12T15:21:55.412Z,4.40
2018-05-12T15:24:29.172Z,4.73
2018-05-12T15:27:02.968Z,4.67
2018-05-12T15:29:37.525Z,5.33
2018-05-12T15:32:11.382Z,4.73
2018-05-12T15:34:46.058Z,5.00
2018-05-12T15:37:19.873Z,4.60
2018-05-12T15:39:54.304Z,4.80
2018-05-12T15:42:28.072Z,5.57
2018-05-12T15:45:01.886Z,5.43
2018-05-12T15:47:35.672Z,5.00
2018-05-12T15:50:10.236Z,4.80
2018-05-12T15:52:44.001Z,4.77
2018-05-12T15:55:17.779Z,5.30
2018-05-12T15:57:51.436Z,5.20
2018-05-12T16:00:25.117Z,5.90
2018-05-12T16:02:59.803Z,4.40
2018-05-12T16:05:33.415Z,4.10
2018-05-12T16:08:07.792Z,5.20
2018-05-12T16:10:41.533Z,4.00
2018-05-12T16:13:15.140Z,6.63
2018-05-12T16:15:48.876Z,5.60
2018-05-12T16:18:22.681Z,5.20
2018-05-12T16:20:57.120Z,4.67
2018-05-12T16:23:31.001Z,12.67
2018-05-12T16:26:05.655Z,4.70
2018-05-12T16:28:39.978Z,4.27
2018-05-12T16:31:14.544Z,4.57
2018-05-12T16:33:48.972Z,4.30
2018-05-12T16:36:22.660Z,4.67
2018-05-12T16:38:57.160Z,4.37
2018-05-12T16:41:30.770Z,4.37
2018-05-12T16:44:04.920Z,7.03
2018-05-12T16:46:38.660Z,6.83
2018-05-12T16:49:12.254Z,4.30
2018-05-12T16:51:46.024Z,14.33
2018-05-12T16:54:19.829Z,4.90
2018-05-12T16:56:54.333Z,4.70
2018-05-12T16:59:27.951Z,4.20
2018-05-12T17:02:01.765Z,4.70
2018-05-12T17:04:35.400Z,5.20
2018-05-12T17:07:09.164Z,4.50
2018-05-12T17:09:42.928Z,4.10
2018-05-12T17:12:16.713Z,4.33
2018-05-12T17:14:50.465Z,4.00
2018-05-12T17:17:24.239Z,3.70
2018-05-12T17:19:58.061Z,4.90
2018-05-12T17:22:31.883Z,4.40
2018-05-12T17:25:05.609Z,5.80
2018-05-12T17:27:39.293Z,6.77
2018-05-12T17:30:13.092Z,4.93
2018-05-12T17:32:46.872Z,6.60
2018-05-12T17:35:21.516Z,7.20
2018-05-12T17:37:55.261Z,6.57
2018-05-12T17:40:29.856Z,5.90
2018-05-12T17:43:03.589Z,7.57
2018-05-12T17:45:37.360Z,5.70
2018-05-12T17:48:11.044Z,5.60
2018-05-12T17:50:44.932Z,6.33
2018-05-12T17:53:19.364Z,5.90
2018-05-12T17:55:53.070Z,5.83
2018-05-12T17:58:26.716Z,6.00
2018-05-12T18:01:00.504Z,7.60
2018-05-12T18:03:34.276Z,8.20
2018-05-12T18:06:08.044Z,6.33
2018-05-12T18:08:43.320Z,6.10
2018-05-12T18:11:17.935Z,6.87
2018-05-12T18:13:51.640Z,5.50
2018-05-12T18:16:25.436Z,5.70
2018-05-12T18:18:59.236Z,6.73
2018-05-12T18:21:33.037Z,7.80
2018-05-12T18:24:06.887Z,7.20
2018-05-12T18:26:40.677Z,5.80
2018-05-12T18:29:15.259Z,6.33
2018-05-12T18:31:48.989Z,6.60
2018-05-12T18:34:23.477Z,5.63
2018-05-12T18:36:57.209Z,6.87
2018-05-12T18:39:31.723Z,5.20
2018-05-12T18:42:05.379Z,5.20
2018-05-12T18:44:39.232Z,6.20
2018-05-12T18:47:13.716Z,6.43
2018-05-12T18:49:48.154Z,5.77
2018-05-12T18:52:23.347Z,5.97
2018-05-12T18:54:58.060Z,5.40
2018-05-12T18:57:31.861Z,7.57
2018-05-12T19:00:05.570Z,7.67
2018-05-12T19:02:40.144Z,7.70
2018-05-12T19:05:14.576Z,8.40
2018-05-12T19:07:49.065Z,7.70
2018-05-12T19:10:22.789Z,7.90
2018-05-12T19:12:56.662Z,8.47
2018-05-12T19:15:30.528Z,7.67
2018-05-12T19:18:04.133Z,7.50
2018-05-12T19:20:38.726Z,8.93
2018-05-12T19:23:12.416Z,8.50
2018-05-12T19:25:46.240Z,8.00
2018-05-12T19:28:20.136Z,7.53
2018-05-12T19:30:53.905Z,7.87
2018-05-12T19:33:27.727Z,6.83
2018-05-12T19:36:01.474Z,7.47
2018-05-12T19:38:35.286Z,7.67
2018-05-12T19:41:09.814Z,7.83
2018-05-12T19:43:43.714Z,10.00
2018-05-12T19:46:17.418Z,8.40
2018-05-12T19:48:51.148Z,9.27
2018-05-12T19:51:24.804Z,7.80
2018-05-12T19:53:58.371Z,8.40
2018-05-12T19:56:32.042Z,7.00
2018-05-12T19:59:05.824Z,8.90
2018-05-12T20:01:39.640Z,7.63
2018-05-12T20:04:13.312Z,7.00
2018-05-12T20:06:46.991Z,7.23
2018-05-12T20:09:20.740Z,8.60
2018-05-12T20:11:54.342Z,8.20
2018-05-12T20:14:28.089Z,7.93
2018-05-12T20:17:01.901Z,8.87
2018-05-12T20:19:36.393Z,9.10
2018-05-12T20:22:10.890Z,9.37
2018-05-12T20:24:45.416Z,10.20
2018-05-12T20:27:19.088Z,11.50
2018-05-12T20:29:52.927Z,11.17
2018-05-12T20:32:26.684Z,13.50
2018-05-12T20:35:00.437Z,11.80
2018-05-12T20:37:35.027Z,11.90
2018-05-12T20:40:09.528Z,10.07
2018-05-12T20:42:44.050Z,9.90
2018-05-12T20:45:17.822Z,9.93
2018-05-12T20:47:51.564Z,9.10
2018-05-12T20:50:25.334Z,9.43
2018-05-12T20:52:59.041Z,8.93
2018-05-12T20:55:33.753Z,8.80
2018-05-12T20:58:09.025Z,8.90
2018-05-12T21:00:42.833Z,9.20
2018-05-12T21:03:17.337Z,9.60
2018-05-12T21:05:51.144Z,8.83
2018-05-12T21:08:24.948Z,8.53
2018-05-12T21:10:58.638Z,9.98
2018-05-12T21:13:33.104Z,8.27
2018-05-12T21:16:06.916Z,8.95
2018-05-12T21:18:40.653Z,11.37
2018-05-12T21:21:14.505Z,7.77
2018-05-12T21:23:48.491Z,10.27
2018-05-12T21:26:22.072Z,8.80
2018-05-12T21:28:56.578Z,9.10
2018-05-12T21:31:30.372Z,9.75
2018-05-12T21:34:03.996Z,10.20
2018-05-12T21:36:38.541Z,8.00
2018-05-12T21:39:12.349Z,8.20
2018-05-12T21:41:46.893Z,8.83
2018-05-12T21:44:21.449Z,7.87
2018-05-12T21:46:55.122Z,7.30
2018-05-12T21:49:28.914Z,7.53
2018-05-12T21:52:02.616Z,7.00
2018-05-12T21:54:36.480Z,6.85
2018-05-12T21:57:10.928Z,7.40
2018-05-12T21:59:44.764Z,6.85
2018-05-12T22:02:18.542Z,7.93
2018-05-12T22:04:52.267Z,8.18
2018-05-12T22:07:26.801Z,8.53
2018-05-12T22:10:00.495Z,9.63
2018-05-12T22:12:34.149Z,7.37
2018-05-12T22:15:07.860Z,6.93
2018-05-12T22:17:41.637Z,6.40
2018-05-12T22:20:16.186Z,6.68
2018-05-12T22:22:49.798Z,6.57
2018-05-12T22:25:23.524Z,6.97
2018-05-12T22:27:57.250Z,6.28
2018-05-12T22:30:31.175Z,6.40
2018-05-12T22:33:05.006Z,6.37
2018-05-12T22:35:38.777Z,6.60
2018-05-12T22:38:12.347Z,6.12
2018-05-12T22:40:46.214Z,8.30
2018-05-12T22:43:20.760Z,6.00
2018-05-12T22:45:54.424Z,6.32
2018-05-12T22:48:28.975Z,6.82
2018-05-12T22:51:03.428Z,6.90
2018-05-12T22:53:37.197Z,7.20
2018-05-12T22:56:11.841Z,8.85
2018-05-12T22:58:45.679Z,6.47
2018-05-12T23:01:19.336Z,7.32
2018-05-12T23:03:53.107Z,6.20
2018-05-12T23:06:27.585Z,7.15
2018-05-12T23:09:01.443Z,7.30
2018-05-12T23:11:35.180Z,7.37
2018-05-12T23:14:08.852Z,7.15
2018-05-12T23:16:43.376Z,7.82
2018-05-12T23:19:17.008Z,7.30
2018-05-12T23:21:50.804Z,7.22
2018-05-12T23:24:24.671Z,7.75
2018-05-12T23:26:58.251Z,7.50
2018-05-12T23:29:32.671Z,6.55
2018-05-12T23:32:06.372Z,9.35
2018-05-12T23:34:40.145Z,6.60
2018-05-12T23:37:14.585Z,6.85
2018-05-12T23:39:49.008Z,6.65
2018-05-12T23:42:22.903Z,6.50
2018-05-12T23:44:56.574Z,6.90
2018-05-12T23:47:30.184Z,7.70
2018-05-12T23:50:03.917Z,7.35
2018-05-12T23:52:37.686Z,7.15
2018-05-12T23:55:11.461Z,7.30
2018-05-12T23:57:45.177Z,7.40
